createdAt,value
2023-04-02T00:00:53.780Z,221.56
2023-04-02T00:01:53.812Z,221.63
2023-04-02T00:02:53.846Z,221.66
2023-04-02T00:03:53.916Z,221.73
2023-04-02T00:04:53.740Z,220.63
2023-04-02T00:05:53.716Z,220.84
2023-04-02T00:06:53.709Z,220.93
2023-04-02T00:07:53.758Z,221.26
2023-04-02T00:08:53.689Z,221.27
2023-04-02T00:09:53.681Z,221.31
2023-04-02T00:10:53.672Z,221.10
2023-04-02T00:11:53.661Z,220.05
2023-04-02T00:12:53.658Z,221.02
2023-04-02T00:13:53.652Z,220.09
2023-04-02T00:14:53.632Z,220.27
2023-04-02T00:15:53.620Z,220.04
2023-04-02T00:16:53.625Z,220.47
2023-04-02T00:17:53.678Z,220.96
2023-04-02T00:18:53.603Z,220.90
2023-04-02T00:19:53.594Z,220.82
2023-04-02T00:20:53.590Z,220.23
2023-04-02T00:21:53.571Z,221.40
2023-04-02T00:22:53.570Z,220.20
2023-04-02T00:23:53.601Z,221.35
2023-04-02T00:24:53.547Z,219.37
2023-04-02T00:25:53.545Z,220.93
2023-04-02T00:26:53.537Z,220.68
2023-04-02T00:27:53.512Z,220.85
2023-04-02T00:28:53.530Z,220.42
2023-04-02T00:29:53.480Z,218.98
2023-04-02T00:30:53.459Z,220.57
2023-04-02T00:31:53.472Z,220.04
2023-04-02T00:32:53.471Z,218.70
2023-04-02T00:33:53.417Z,220.27
2023-04-02T00:34:53.417Z,219.09
2023-04-02T00:35:53.452Z,219.14
2023-04-02T00:36:53.475Z,219.69
2023-04-02T00:37:53.472Z,220.07
2023-04-02T00:38:53.493Z,219.96
2023-04-02T00:39:53.518Z,219.56
2023-04-02T00:40:53.531Z,218.85
2023-04-02T00:41:53.537Z,218.58
2023-04-02T00:42:53.545Z,218.68
2023-04-02T00:43:53.555Z,218.66
2023-04-02T00:44:53.603Z,219.86
2023-04-02T00:45:53.614Z,217.98
2023-04-02T00:46:53.593Z,218.17
2023-04-02T00:47:53.726Z,218.55
2023-04-02T00:48:53.644Z,218.15
2023-04-02T00:49:53.631Z,219.47
2023-04-02T00:50:53.652Z,217.55
2023-04-02T00:51:53.690Z,219.04
2023-04-02T00:52:53.682Z,218.58
2023-04-02T00:53:53.698Z,218.71
2023-04-02T00:54:53.647Z,218.61
2023-04-02T00:55:53.644Z,218.28
2023-04-02T00:56:53.664Z,218.98
2023-04-02T00:57:53.611Z,217.18
2023-04-02T00:58:53.607Z,218.62
2023-04-02T00:59:53.594Z,218.25
2023-04-02T01:00:53.569Z,218.91
2023-04-02T01:01:53.567Z,218.83
2023-04-02T01:02:53.600Z,218.00
2023-04-02T01:03:53.640Z,217.47
2023-04-02T01:04:53.519Z,219.07
2023-04-02T01:05:53.505Z,218.73
2023-04-02T01:06:53.524Z,218.40
2023-04-02T01:07:53.479Z,217.82
2023-04-02T01:08:53.460Z,218.48
2023-04-02T01:09:53.474Z,217.25
2023-04-02T01:10:53.443Z,217.83
2023-04-02T01:11:53.455Z,217.05
2023-04-02T01:12:53.420Z,217.68
2023-04-02T01:13:53.422Z,216.37
2023-04-02T01:14:53.405Z,216.22
2023-04-02T01:15:53.414Z,217.69
2023-04-02T01:16:53.380Z,216.83
2023-04-02T01:17:53.437Z,216.77
2023-04-02T01:18:53.359Z,217.48
2023-04-02T01:19:53.357Z,216.35
2023-04-02T01:20:53.365Z,216.37
2023-04-02T01:21:53.389Z,217.14
2023-04-02T01:22:53.393Z,217.22
2023-04-02T01:23:53.416Z,215.25
2023-04-02T01:24:53.409Z,215.90
2023-04-02T01:25:53.427Z,216.28
2023-04-02T01:26:53.453Z,217.23
2023-04-02T01:27:53.436Z,216.36
2023-04-02T01:28:53.442Z,215.31
2023-04-02T01:29:53.446Z,216.33
2023-04-02T01:30:53.453Z,216.88
2023-04-02T01:31:53.484Z,215.96
2023-04-02T01:32:53.538Z,216.63
2023-04-02T01:33:53.491Z,215.97
2023-04-02T01:34:53.534Z,214.91
2023-04-02T01:35:53.536Z,215.38
2023-04-02T01:36:53.537Z,215.51
2023-04-02T01:37:53.537Z,215.04
2023-04-02T01:38:53.519Z,215.25
2023-04-02T01:39:53.505Z,215.44
2023-04-02T01:40:53.472Z,215.16
2023-04-02T01:41:53.464Z,214.98
2023-04-02T01:42:53.500Z,215.88
2023-04-02T01:43:53.438Z,214.97
2023-04-02T01:44:53.431Z,215.86
2023-04-02T01:45:53.379Z,215.21
2023-04-02T01:46:53.401Z,215.77
2023-04-02T01:47:53.458Z,215.60
2023-04-02T01:48:53.335Z,215.05
2023-04-02T01:49:53.317Z,215.37
2023-04-02T01:50:53.298Z,215.39
2023-04-02T01:51:53.284Z,214.78
2023-04-02T01:52:53.258Z,214.20
2023-04-02T01:53:53.237Z,214.69
2023-04-02T01:54:53.230Z,212.69
2023-04-02T01:55:53.224Z,214.50
2023-04-02T01:56:53.275Z,214.32
2023-04-02T01:57:53.186Z,213.75
2023-04-02T01:58:53.180Z,215.02
2023-04-02T01:59:53.177Z,214.72
2023-04-02T02:00:53.246Z,213.86
2023-04-02T02:01:53.172Z,214.39
2023-04-02T02:02:53.137Z,213.49
2023-04-02T02:03:53.097Z,214.77
2023-04-02T02:04:53.085Z,213.22
2023-04-02T02:05:53.104Z,214.37
2023-04-02T02:06:53.094Z,213.38
2023-04-02T02:07:53.091Z,213.79
2023-04-02T02:08:53.094Z,213.68
2023-04-02T02:09:53.109Z,213.75
2023-04-02T02:10:53.107Z,214.58
2023-04-02T02:11:53.149Z,213.63
2023-04-02T02:12:53.136Z,214.62
2023-04-02T02:13:53.171Z,213.27
2023-04-02T02:14:53.117Z,213.46
2023-04-02T02:15:53.104Z,213.39
2023-04-02T02:16:53.082Z,213.36
2023-04-02T02:17:53.129Z,213.76
2023-04-02T02:18:53.050Z,214.48
2023-04-02T02:19:53.055Z,214.96
2023-04-02T02:20:53.026Z,213.38
2023-04-02T02:21:53.037Z,214.99
2023-04-02T02:22:52.992Z,214.04
2023-04-02T02:23:52.964Z,213.66
2023-04-02T02:24:52.953Z,213.94
2023-04-02T02:25:52.968Z,213.36
2023-04-02T02:26:52.926Z,213.30
2023-04-02T02:27:52.903Z,212.58
2023-04-02T02:28:52.886Z,213.17
2023-04-02T02:29:52.891Z,212.54
2023-04-02T02:30:52.873Z,212.41
2023-04-02T02:31:52.933Z,212.77
2023-04-02T02:32:52.851Z,212.93
2023-04-02T02:33:52.793Z,212.28
2023-04-02T02:34:52.791Z,212.66
2023-04-02T02:35:52.823Z,212.49
2023-04-02T02:36:52.750Z,212.85
2023-04-02T02:37:52.738Z,210.79
2023-04-02T02:38:54.225Z,211.80
2023-04-02T02:39:52.729Z,210.17
2023-04-02T02:40:52.704Z,209.95
2023-04-02T02:41:52.737Z,211.97
2023-04-02T02:42:52.704Z,211.05
2023-04-02T02:43:52.720Z,210.95
2023-04-02T02:44:52.753Z,211.71
2023-04-02T02:45:52.827Z,211.79
2023-04-02T02:46:52.763Z,211.54
2023-04-02T02:47:52.798Z,210.00
2023-04-02T02:48:52.759Z,211.18
2023-04-02T02:49:52.758Z,211.34
2023-04-02T02:50:52.753Z,211.28
2023-04-02T02:51:52.737Z,210.59
2023-04-02T02:52:52.723Z,210.76
2023-04-02T02:53:52.738Z,211.40
2023-04-02T02:54:52.732Z,211.34
2023-04-02T02:55:52.741Z,201.76
2023-04-02T02:56:52.765Z,195.59
2023-04-02T02:57:52.705Z,193.36
2023-04-02T02:58:52.677Z,192.50
2023-04-02T02:59:52.673Z,190.07
2023-04-02T03:00:52.684Z,185.05
2023-04-02T03:01:52.649Z,178.21
2023-04-02T03:02:52.885Z,175.21
2023-04-02T03:03:52.780Z,175.28
2023-04-02T03:04:52.641Z,166.64
2023-04-02T03:05:52.645Z,162.08
2023-04-02T03:06:52.641Z,153.95
2023-04-02T03:07:52.618Z,153.58
2023-04-02T03:08:52.609Z,147.89
2023-04-02T03:09:52.618Z,142.39
2023-04-02T03:10:52.629Z,134.96
2023-04-02T03:11:52.619Z,128.56
2023-04-02T03:12:52.615Z,122.75
2023-04-02T03:13:52.620Z,123.14
2023-04-02T03:14:52.629Z,113.42
2023-04-02T03:15:52.755Z,109.86
2023-04-02T03:16:52.769Z,106.10
2023-04-02T03:17:52.882Z,101.41
2023-04-02T03:18:52.894Z,94.00
2023-04-02T03:19:52.967Z,89.81
2023-04-02T03:20:53.052Z,86.10
2023-04-02T03:21:53.109Z,82.64
2023-04-02T03:22:53.189Z,75.82
2023-04-02T03:23:53.238Z,74.03
2023-04-02T03:24:53.297Z,71.89
2023-04-02T03:25:53.362Z,67.84
2023-04-02T03:26:53.367Z,66.21
2023-04-02T03:27:53.419Z,61.52
2023-04-02T03:28:53.367Z,52.68
2023-04-02T03:29:53.365Z,46.78
2023-04-02T03:30:53.390Z,42.65
2023-04-02T03:31:53.367Z,40.54
2023-04-02T03:32:53.400Z,39.24
2023-04-02T03:33:53.377Z,34.60
2023-04-02T03:34:53.377Z,31.32
2023-04-02T03:35:53.386Z,31.15
2023-04-02T03:36:53.444Z,30.43
2023-04-02T03:37:53.488Z,28.30
2023-04-02T03:38:53.513Z,26.13
2023-04-02T03:39:53.584Z,27.35
2023-04-02T03:40:53.621Z,27.49
2023-04-02T03:41:53.684Z,25.85
2023-04-02T03:42:53.729Z,25.00
2023-04-02T03:43:53.802Z,25.00
2023-04-02T03:44:53.819Z,25.01
2023-04-02T03:45:53.849Z,26.08
2023-04-02T03:46:53.913Z,25.70
2023-04-02T03:47:53.927Z,29.02
2023-04-02T03:48:53.936Z,26.97
2023-04-02T03:49:53.966Z,25.62
2023-04-02T03:50:54.021Z,25.00
2023-04-02T03:51:54.078Z,25.00
2023-04-02T03:52:54.081Z,26.58
2023-04-02T03:53:54.112Z,26.25
2023-04-02T03:54:54.701Z,25.86
2023-04-02T03:55:54.189Z,26.91
2023-04-02T03:56:54.235Z,27.85
2023-04-02T03:57:54.255Z,26.83
2023-04-02T03:58:54.275Z,27.78
2023-04-02T03:59:54.336Z,26.78
2023-04-02T04:00:54.365Z,27.70
2023-04-02T04:01:54.464Z,25.11
2023-04-02T04:02:54.495Z,25.00
2023-04-02T04:03:54.559Z,26.52
2023-04-02T04:04:54.506Z,26.33
2023-04-02T04:05:54.532Z,28.00
2023-04-02T04:06:54.539Z,29.63
2023-04-02T04:07:54.563Z,26.83
2023-04-02T04:08:54.655Z,26.86
2023-04-02T04:09:54.614Z,27.82
2023-04-02T04:10:54.644Z,29.34
2023-04-02T04:11:54.634Z,30.60
2023-04-02T04:12:54.639Z,29.64
2023-04-02T04:13:54.645Z,32.11
2023-04-02T04:14:54.662Z,34.67
2023-04-02T04:15:54.693Z,31.12
2023-04-02T04:16:54.820Z,30.11
2023-04-02T04:17:54.792Z,30.63
2023-04-02T04:18:54.730Z,25.00
2023-04-02T04:19:54.737Z,25.69
2023-04-02T04:20:54.745Z,26.09
2023-04-02T04:21:54.785Z,25.26
2023-04-02T04:22:54.773Z,26.21
2023-04-02T04:23:54.801Z,27.11
2023-04-02T04:24:54.794Z,25.99
2023-04-02T04:25:54.813Z,29.01
2023-04-02T04:26:54.853Z,30.22
2023-04-02T04:27:54.838Z,31.43
2023-04-02T04:28:54.837Z,30.04
2023-04-02T04:29:54.854Z,29.23
2023-04-02T04:30:54.858Z,31.81
2023-04-02T04:31:54.996Z,32.07
2023-04-02T04:32:54.902Z,29.16
2023-04-02T04:33:54.919Z,27.69
2023-04-02T04:34:54.897Z,30.38
2023-04-02T04:35:54.932Z,32.23
2023-04-02T04:36:54.939Z,31.33
2023-04-02T04:37:54.947Z,33.14
2023-04-02T04:38:54.973Z,26.20
2023-04-02T04:39:54.988Z,27.36
2023-04-02T04:40:55.009Z,28.27
2023-04-02T04:41:55.033Z,28.20
2023-04-02T04:42:55.061Z,29.21
2023-04-02T04:43:55.047Z,29.34
2023-04-02T04:44:55.049Z,29.97
2023-04-02T04:45:55.102Z,30.60
2023-04-02T04:46:55.082Z,32.44
2023-04-02T04:47:55.128Z,36.54
2023-04-02T04:48:55.081Z,37.18
2023-04-02T04:49:55.096Z,40.80
2023-04-02T04:50:55.080Z,39.13
2023-04-02T04:51:55.089Z,38.89
2023-04-02T04:52:55.085Z,36.72
2023-04-02T04:53:55.124Z,35.41
2023-04-02T04:54:55.104Z,40.43
2023-04-02T04:55:55.101Z,38.30
2023-04-02T04:56:55.176Z,40.31
2023-04-02T04:57:55.125Z,37.83
2023-04-02T04:58:55.138Z,38.43
2023-04-02T04:59:55.141Z,38.89
2023-04-02T05:00:55.162Z,36.85
2023-04-02T05:01:55.218Z,38.55
2023-04-02T05:02:55.212Z,35.66
2023-04-02T05:03:55.183Z,36.66
2023-04-02T05:04:55.230Z,36.76
2023-04-02T05:05:55.180Z,35.32
2023-04-02T05:06:55.198Z,36.64
2023-04-02T05:07:56.408Z,37.79
2023-04-02T05:08:55.214Z,39.30
2023-04-02T05:09:55.216Z,38.98
2023-04-02T05:10:55.250Z,42.19
2023-04-02T05:11:55.230Z,42.37
2023-04-02T05:12:55.236Z,42.74
2023-04-02T05:13:55.237Z,44.25
2023-04-02T05:14:55.270Z,42.59
2023-04-02T05:15:55.307Z,43.41
2023-04-02T05:16:55.302Z,45.05
2023-04-02T05:17:55.360Z,48.08
2023-04-02T05:18:55.336Z,47.47
2023-04-02T05:19:55.350Z,46.40
2023-04-02T05:20:55.378Z,52.32
2023-04-02T05:21:55.408Z,46.09
2023-04-02T05:22:55.420Z,47.18
2023-04-02T05:23:55.414Z,48.60
2023-04-02T05:24:55.439Z,51.30
2023-04-02T05:25:55.448Z,51.30
2023-04-02T05:26:55.473Z,49.64
2023-04-02T05:27:55.486Z,52.33
2023-04-02T05:28:55.509Z,52.92
2023-04-02T05:29:55.502Z,53.84
2023-04-02T05:30:55.550Z,51.24
2023-04-02T05:31:55.539Z,53.36
2023-04-02T05:32:55.672Z,54.53
2023-04-02T05:33:55.564Z,57.02
2023-04-02T05:34:55.576Z,57.09
2023-04-02T05:35:55.636Z,57.62
2023-04-02T05:36:55.666Z,59.51
2023-04-02T05:37:55.613Z,60.69
2023-04-02T05:38:55.623Z,62.82
2023-04-02T05:39:55.633Z,61.23
2023-04-02T05:40:55.653Z,62.15
2023-04-02T05:41:55.682Z,64.30
2023-04-02T05:42:55.750Z,63.82
2023-04-02T05:43:55.689Z,67.58
2023-04-02T05:44:55.706Z,70.54
2023-04-02T05:45:55.723Z,65.62
2023-04-02T05:46:55.789Z,69.01
2023-04-02T05:47:55.758Z,72.67
2023-04-02T05:48:55.743Z,73.24
2023-04-02T05:49:55.745Z,70.88
2023-04-02T05:50:55.762Z,76.01
2023-04-02T05:51:57.089Z,74.68
2023-04-02T05:52:55.782Z,77.76
2023-04-02T05:53:55.782Z,77.12
2023-04-02T05:54:55.809Z,76.30
2023-04-02T05:55:55.824Z,77.29
2023-04-02T05:56:55.897Z,79.97
2023-04-02T05:58:17.716Z,77.71
2023-04-02T05:58:56.951Z,77.83
2023-04-02T05:59:55.907Z,78.31
2023-04-02T06:00:55.927Z,78.04
2023-04-02T06:01:55.952Z,78.09
2023-04-02T06:02:55.987Z,82.29
2023-04-02T06:03:55.975Z,82.65
2023-04-02T06:04:55.968Z,80.29
2023-04-02T06:05:55.984Z,84.30
2023-04-02T06:06:56.004Z,83.48
2023-04-02T06:07:56.005Z,83.13
2023-04-02T06:08:56.011Z,86.77
2023-04-02T06:09:56.018Z,87.16
2023-04-02T06:10:56.046Z,88.16
2023-04-02T06:11:56.055Z,84.31
2023-04-02T06:12:56.077Z,77.77
2023-04-02T06:13:56.085Z,75.28
2023-04-02T06:14:56.096Z,74.13
2023-04-02T06:15:56.097Z,70.62
2023-04-02T06:16:56.169Z,81.66
2023-04-02T06:17:56.173Z,99.40
2023-04-02T06:18:56.126Z,103.93
2023-04-02T06:19:56.137Z,113.17
2023-04-02T06:20:56.150Z,122.39
2023-04-02T06:21:56.157Z,130.50
2023-04-02T06:22:56.170Z,131.18
2023-04-02T06:23:56.172Z,134.13
2023-04-02T06:24:56.197Z,129.90
2023-04-02T06:25:56.207Z,131.77
2023-04-02T06:26:56.212Z,130.46
2023-04-02T06:27:56.208Z,127.21
2023-04-02T06:28:56.244Z,122.75
2023-04-02T06:29:56.281Z,120.72
2023-04-02T06:30:56.364Z,120.04
2023-04-02T06:31:56.337Z,118.54
2023-04-02T06:32:56.448Z,114.62
2023-04-02T06:33:56.448Z,117.24
2023-04-02T06:34:56.453Z,115.76
2023-04-02T06:35:56.457Z,114.19
2023-04-02T06:36:56.474Z,110.64
2023-04-02T06:37:56.502Z,115.90
2023-04-02T06:38:56.535Z,118.32
2023-04-02T06:39:56.564Z,113.93
2023-04-02T06:40:58.780Z,115.00
2023-04-02T06:41:56.633Z,117.98
2023-04-02T06:42:56.683Z,122.01
2023-04-02T06:43:56.736Z,120.64
2023-04-02T06:44:56.743Z,119.67
2023-04-02T06:45:56.779Z,120.50
2023-04-02T06:46:56.800Z,119.55
2023-04-02T06:47:56.866Z,125.81
2023-04-02T06:48:56.874Z,127.22
2023-04-02T06:49:56.915Z,126.12
2023-04-02T06:50:56.950Z,125.07
2023-04-02T06:51:56.980Z,125.42
2023-04-02T06:52:57.034Z,118.15
2023-04-02T06:53:57.062Z,118.03
2023-04-02T06:54:57.102Z,119.46
2023-04-02T06:55:57.113Z,117.45
2023-04-02T06:56:57.193Z,114.33
2023-04-02T06:57:57.196Z,114.05
2023-04-02T06:58:57.222Z,111.61
2023-04-02T06:59:57.262Z,106.82
2023-04-02T07:00:57.294Z,101.72
2023-04-02T07:01:57.443Z,106.03
2023-04-02T07:02:57.404Z,105.27
2023-04-02T07:03:57.380Z,100.09
2023-04-02T07:04:57.447Z,99.80
2023-04-02T07:05:57.425Z,94.18
2023-04-02T07:06:57.439Z,93.17
2023-04-02T07:07:57.474Z,85.35
2023-04-02T07:08:57.502Z,79.44
2023-04-02T07:09:57.543Z,73.34
2023-04-02T07:10:57.573Z,68.39
2023-04-02T07:11:57.609Z,64.76
2023-04-02T07:12:57.646Z,68.57
2023-04-02T07:13:57.673Z,67.18
2023-04-02T07:14:57.697Z,64.83
2023-04-02T07:15:57.767Z,61.41
2023-04-02T07:16:57.766Z,49.05
2023-04-02T07:17:57.822Z,46.36
2023-04-02T07:18:57.813Z,48.22
2023-04-02T07:19:57.854Z,40.87
2023-04-02T07:20:57.882Z,41.14
2023-04-02T07:21:57.929Z,41.28
2023-04-02T07:22:57.948Z,35.40
2023-04-02T07:23:57.992Z,37.26
2023-04-02T07:24:58.009Z,33.46
2023-04-02T07:25:58.036Z,34.38
2023-04-02T07:26:58.062Z,25.49
2023-04-02T07:27:58.096Z,28.72
2023-04-02T07:28:58.127Z,28.16
2023-04-02T07:29:58.145Z,26.78
2023-04-02T07:30:58.183Z,25.00
2023-04-02T07:31:58.192Z,25.17
2023-04-02T07:32:58.313Z,27.80
2023-04-02T07:33:58.246Z,25.00
2023-04-02T07:34:58.266Z,26.06
2023-04-02T07:35:58.323Z,28.85
2023-04-02T07:36:58.340Z,26.34
2023-04-02T07:37:58.368Z,28.75
2023-04-02T07:38:58.392Z,27.29
2023-04-02T07:39:58.420Z,25.57
2023-04-02T07:40:58.455Z,23.18
2023-04-02T07:41:58.507Z,27.67
2023-04-02T07:42:58.521Z,25.00
2023-04-02T07:43:58.554Z,23.29
2023-04-02T07:44:58.582Z,28.18
2023-04-02T07:45:58.601Z,34.13
2023-04-02T07:46:58.805Z,25.00
2023-04-02T07:47:58.695Z,25.50
2023-04-02T07:48:58.688Z,28.60
2023-04-02T07:49:58.710Z,26.82
2023-04-02T07:50:58.763Z,25.08
2023-04-02T07:51:58.769Z,30.61
2023-04-02T07:52:58.811Z,28.79
2023-04-02T07:53:58.817Z,25.00
2023-04-02T07:54:58.838Z,25.24
2023-04-02T07:55:58.855Z,23.62
2023-04-02T07:56:58.907Z,28.84
2023-04-02T07:57:58.907Z,27.37
2023-04-02T07:58:58.954Z,25.00
2023-04-02T07:59:58.986Z,25.00
2023-04-02T08:00:59.010Z,25.00
2023-04-02T08:01:59.060Z,29.80
2023-04-02T08:02:59.123Z,28.53
2023-04-02T08:03:59.108Z,24.09
2023-04-02T08:04:59.113Z,25.00
2023-04-02T08:05:59.132Z,27.70
2023-04-02T08:06:59.165Z,26.21
2023-04-02T08:07:59.174Z,31.27
2023-04-02T08:08:59.206Z,23.07
2023-04-02T08:09:59.219Z,34.37
2023-04-02T08:10:59.241Z,24.50
2023-04-02T08:11:59.256Z,25.98
2023-04-02T08:12:59.279Z,25.91
2023-04-02T08:13:59.290Z,26.38
2023-04-02T08:14:59.306Z,25.00
2023-04-02T08:15:59.319Z,27.23
2023-04-02T08:16:59.445Z,30.30
2023-04-02T08:17:59.387Z,28.36
2023-04-02T08:18:59.365Z,25.71
2023-04-02T08:19:59.367Z,30.39
2023-04-02T08:20:59.382Z,31.07
2023-04-02T08:21:59.396Z,32.20
2023-04-02T08:22:59.400Z,34.02
2023-04-02T08:23:59.414Z,28.72
2023-04-02T08:24:59.422Z,34.06
2023-04-02T08:25:59.435Z,28.14
2023-04-02T08:26:59.445Z,27.63
2023-04-02T08:27:59.459Z,30.73
2023-04-02T08:28:59.484Z,31.28
2023-04-02T08:29:59.492Z,24.30
2023-04-02T08:30:59.558Z,31.83
2023-04-02T08:31:59.491Z,27.61
2023-04-02T08:32:59.522Z,38.75
2023-04-02T08:33:59.521Z,31.23
2023-04-02T08:34:59.523Z,30.11
2023-04-02T08:35:59.625Z,34.48
2023-04-02T08:36:59.528Z,26.71
2023-04-02T08:37:59.534Z,27.79
2023-04-02T08:38:59.561Z,24.92
2023-04-02T08:39:59.566Z,25.51
2023-04-02T08:40:59.568Z,29.70
2023-04-02T08:41:59.581Z,27.36
2023-04-02T08:42:59.610Z,33.68
2023-04-02T08:43:59.621Z,31.14
2023-04-02T08:45:02.300Z,32.96
2023-04-02T08:45:59.641Z,33.02
2023-04-02T08:46:59.627Z,34.01
2023-04-02T08:47:59.679Z,33.94
2023-04-02T08:48:59.655Z,31.05
2023-04-02T08:49:59.648Z,30.39
2023-04-02T08:50:59.652Z,30.85
2023-04-02T08:51:59.657Z,28.36
2023-04-02T08:52:59.652Z,30.42
2023-04-02T08:53:59.659Z,35.90
2023-04-02T08:54:59.655Z,27.09
2023-04-02T08:55:59.668Z,28.62
2023-04-02T08:56:59.670Z,31.95
2023-04-02T08:57:59.658Z,36.39
2023-04-02T08:58:59.664Z,40.10
2023-04-02T08:59:59.655Z,45.17
2023-04-02T09:00:59.642Z,63.41
2023-04-02T09:01:59.850Z,66.45
2023-04-02T09:02:59.667Z,77.82
2023-04-02T09:03:59.645Z,94.56
2023-04-02T09:04:59.757Z,106.79
2023-04-02T09:05:59.749Z,115.56
2023-04-02T09:06:59.811Z,120.40
2023-04-02T09:07:59.859Z,127.10
2023-04-02T09:08:59.937Z,130.61
2023-04-02T09:09:59.978Z,134.72
2023-04-02T09:11:00.030Z,139.17
2023-04-02T09:12:00.099Z,140.87
2023-04-02T09:13:00.136Z,144.74
2023-04-02T09:14:00.285Z,148.73
2023-04-02T09:15:00.237Z,153.12
2023-04-02T09:16:00.326Z,156.80
2023-04-02T09:17:00.343Z,160.15
2023-04-02T09:18:00.452Z,164.61
2023-04-02T09:19:00.420Z,167.05
2023-04-02T09:20:00.478Z,171.89
2023-04-02T09:21:00.508Z,176.56
2023-04-02T09:22:00.508Z,176.67
2023-04-02T09:23:00.486Z,177.20
2023-04-02T09:24:00.497Z,179.49
2023-04-02T09:25:00.460Z,183.67
2023-04-02T09:26:04.689Z,188.63
2023-04-02T09:27:00.464Z,177.11
2023-04-02T09:28:00.441Z,179.19
2023-04-02T09:29:00.467Z,183.27
2023-04-02T09:30:00.434Z,189.53
2023-04-02T09:31:00.412Z,201.11
2023-04-02T09:32:00.450Z,203.65
2023-04-02T09:33:00.439Z,206.65
2023-04-02T09:34:00.394Z,208.16
2023-04-02T09:35:00.390Z,209.56
2023-04-02T09:36:00.432Z,211.12
2023-04-02T09:37:00.381Z,212.57
2023-04-02T09:38:00.371Z,215.22
2023-04-02T09:39:00.374Z,218.25
2023-04-02T09:40:00.363Z,218.93
2023-04-02T09:41:00.344Z,220.64
2023-04-02T09:42:05.876Z,222.59
2023-04-02T09:43:01.322Z,222.67
2023-04-02T09:44:00.361Z,223.01
2023-04-02T09:45:00.302Z,224.05
2023-04-02T09:46:00.302Z,225.91
2023-04-02T09:47:00.393Z,228.51
2023-04-02T09:48:00.289Z,229.25
2023-04-02T09:49:00.245Z,229.41
2023-04-02T09:50:00.243Z,229.87
2023-04-02T09:51:00.229Z,230.66
2023-04-02T09:52:00.209Z,232.59
2023-04-02T09:53:00.190Z,235.30
2023-04-02T09:54:00.168Z,229.61
2023-04-02T09:55:00.145Z,230.71
2023-04-02T09:56:00.135Z,232.71
2023-04-02T09:57:00.194Z,235.89
2023-04-02T09:58:02.045Z,240.74
2023-04-02T09:59:00.054Z,242.45
2023-04-02T10:00:00.062Z,243.12
2023-04-02T10:01:00.039Z,244.28
2023-04-02T10:01:59.993Z,244.74
2023-04-02T10:03:00.020Z,244.87
2023-04-02T10:04:00.044Z,246.22
2023-04-02T10:04:59.918Z,246.14
2023-04-02T10:05:59.912Z,246.38
2023-04-02T10:06:59.894Z,247.81
2023-04-02T10:07:59.858Z,248.67
2023-04-02T10:08:59.848Z,248.31
2023-04-02T10:09:59.824Z,248.88
2023-04-02T10:10:59.794Z,249.85
2023-04-02T10:11:59.792Z,250.00
2023-04-02T10:12:59.759Z,249.91
2023-04-02T10:13:59.753Z,250.00
2023-04-02T10:14:59.736Z,249.23
2023-04-02T10:15:59.705Z,249.93
2023-04-02T10:16:59.702Z,249.00
2023-04-02T10:17:59.723Z,250.00
2023-04-02T10:18:59.653Z,249.81
2023-04-02T10:19:59.638Z,249.03
2023-04-02T10:20:59.631Z,249.82
2023-04-02T10:21:59.601Z,249.90
2023-04-02T10:22:59.590Z,249.88
2023-04-02T10:23:59.566Z,250.10
2023-04-02T10:24:59.561Z,250.73
2023-04-02T10:25:59.523Z,250.94
2023-04-02T10:26:59.496Z,249.61
2023-04-02T10:27:59.491Z,249.79
2023-04-02T10:28:59.452Z,249.87
2023-04-02T10:29:59.434Z,250.00
2023-04-02T10:30:59.461Z,249.22
2023-04-02T10:31:59.399Z,248.86
2023-04-02T10:32:59.430Z,249.39
2023-04-02T10:33:59.371Z,249.62
2023-04-02T10:34:59.332Z,249.06
2023-04-02T10:35:59.361Z,249.32
2023-04-02T10:36:59.302Z,249.26
2023-04-02T10:37:59.265Z,250.00
2023-04-02T10:38:59.252Z,249.07
2023-04-02T10:39:59.267Z,249.41
2023-04-02T10:40:59.233Z,250.00
2023-04-02T10:41:59.216Z,249.69
2023-04-02T10:42:59.176Z,248.23
2023-04-02T10:44:06.200Z,249.21
2023-04-02T10:45:00.136Z,249.33
2023-04-02T10:45:59.200Z,249.62
2023-04-02T10:46:59.093Z,249.75
2023-04-02T10:47:59.139Z,250.27
2023-04-02T10:48:59.084Z,251.05
2023-04-02T10:49:59.044Z,249.86
2023-04-02T10:50:59.016Z,249.13
2023-04-02T10:51:58.995Z,249.99
2023-04-02T10:52:58.977Z,248.79
2023-04-02T10:53:58.966Z,249.34
2023-04-02T10:54:58.965Z,249.12
2023-04-02T10:55:58.950Z,248.58
2023-04-02T10:56:58.954Z,249.79
2023-04-02T10:57:58.983Z,248.38
2023-04-02T10:58:58.977Z,248.37
2023-04-02T10:59:59.020Z,248.23
2023-04-02T11:00:59.026Z,249.50
2023-04-02T11:01:59.233Z,248.14
2023-04-02T11:02:59.159Z,248.04
2023-04-02T11:03:59.167Z,248.11
2023-04-02T11:05:01.186Z,249.24
2023-04-02T11:05:59.165Z,248.29
2023-04-02T11:07:07.556Z,247.92
2023-04-02T11:08:00.145Z,248.10
2023-04-02T11:08:59.124Z,248.24
2023-04-02T11:09:59.072Z,248.96
2023-04-02T11:10:59.047Z,248.41
2023-04-02T11:11:59.044Z,249.11
2023-04-02T11:12:59.007Z,250.00
2023-04-02T11:13:58.983Z,248.97
2023-04-02T11:14:58.963Z,248.34
2023-04-02T11:15:59.027Z,246.26
2023-04-02T11:16:58.933Z,249.00
2023-04-02T11:17:58.899Z,248.99
2023-04-02T11:18:58.846Z,248.80
2023-04-02T11:19:58.814Z,246.69
2023-04-02T11:20:58.786Z,248.05
2023-04-02T11:22:00.761Z,248.92
2023-04-02T11:22:58.750Z,248.28
2023-04-02T11:23:58.726Z,247.48
2023-04-02T11:24:58.707Z,247.51
2023-04-02T11:25:58.679Z,246.63
2023-04-02T11:26:58.646Z,247.54
2023-04-02T11:27:58.623Z,248.23
2023-04-02T11:28:58.603Z,246.59
2023-04-02T11:29:58.580Z,247.06
2023-04-02T11:30:58.670Z,247.74
2023-04-02T11:31:58.553Z,247.17
2023-04-02T11:32:58.545Z,246.78
2023-04-02T11:33:58.503Z,248.77
2023-04-02T11:35:06.370Z,247.37
2023-04-02T11:35:58.482Z,247.54
2023-04-02T11:36:58.438Z,247.70
2023-04-02T11:37:58.399Z,247.83
2023-04-02T11:39:07.385Z,248.09
2023-04-02T11:39:59.404Z,247.50
2023-04-02T11:40:58.332Z,247.71
2023-04-02T11:41:58.307Z,247.42
2023-04-02T11:42:58.281Z,248.30
2023-04-02T11:43:58.252Z,247.72
2023-04-02T11:44:58.235Z,245.58
2023-04-02T11:45:58.470Z,248.85
2023-04-02T11:46:58.217Z,248.67
2023-04-02T11:47:58.236Z,248.10
2023-04-02T11:48:58.121Z,248.10
2023-04-02T11:49:58.118Z,247.13
2023-04-02T11:50:58.133Z,247.60
2023-04-02T11:52:10.974Z,247.10
2023-04-02T11:52:59.132Z,247.19
2023-04-02T11:53:58.130Z,247.39
2023-04-02T11:54:58.125Z,247.94
2023-04-02T11:55:58.063Z,248.08
2023-04-02T11:56:58.067Z,247.00
2023-04-02T11:57:58.031Z,246.97
2023-04-02T11:58:57.994Z,247.87
2023-04-02T11:59:57.981Z,246.36
2023-04-02T12:00:57.952Z,246.97
2023-04-02T12:01:57.979Z,247.60
2023-04-02T12:02:57.917Z,246.90
2023-04-02T12:03:57.888Z,248.07
2023-04-02T12:04:57.888Z,247.12
2023-04-02T12:05:57.853Z,246.49
2023-04-02T12:06:57.807Z,245.53
2023-04-02T12:07:57.804Z,247.79
2023-04-02T12:08:58.384Z,246.82
2023-04-02T12:09:57.772Z,246.75
2023-04-02T12:10:57.713Z,247.01
2023-04-02T12:11:57.689Z,247.44
2023-04-02T12:12:57.646Z,247.54
2023-04-02T12:13:57.629Z,247.52
2023-04-02T12:14:57.638Z,247.51
2023-04-02T12:15:57.581Z,247.15
2023-04-02T12:16:57.602Z,246.98
2023-04-02T12:17:57.688Z,247.41
2023-04-02T12:18:57.490Z,246.31
2023-04-02T12:19:57.502Z,248.31
2023-04-02T12:20:57.450Z,247.99
2023-04-02T12:21:57.412Z,248.04
2023-04-02T12:22:57.390Z,248.25
2023-04-02T12:23:57.346Z,248.02
2023-04-02T12:24:57.321Z,248.29
2023-04-02T12:25:57.292Z,248.84
2023-04-02T12:26:57.260Z,248.79
2023-04-02T12:27:57.244Z,248.29
2023-04-02T12:28:57.198Z,247.12
2023-04-02T12:29:57.200Z,246.72
2023-04-02T12:30:57.204Z,247.27
2023-04-02T12:31:57.154Z,247.26
2023-04-02T12:32:57.115Z,247.57
2023-04-02T12:33:57.082Z,247.33
2023-04-02T12:34:57.048Z,246.59
2023-04-02T12:35:57.055Z,248.04
2023-04-02T12:36:57.006Z,248.52
2023-04-02T12:37:56.984Z,246.71